createdAt,value
2024-02-29T00:02:14.954Z,99476.41
2024-02-29T00:04:41.651Z,99463.50
2024-02-29T00:07:09.580Z,99462.63
2024-02-29T00:09:40.239Z,99463.47
2024-02-29T00:12:07.599Z,99467.78
2024-02-29T00:14:34.250Z,99461.72
2024-02-29T00:17:02.237Z,99462.59
2024-02-29T00:19:29.383Z,99460.00
2024-02-29T00:21:56.313Z,99461.63
2024-02-29T00:24:23.112Z,99467.63
2024-02-29T00:26:50.050Z,99460.78
2024-02-29T00:29:16.713Z,99474.59
2024-02-29T00:31:47.412Z,99466.84
2024-02-29T00:34:15.052Z,99469.44
2024-02-29T00:36:41.861Z,99467.69
2024-02-29T00:39:14.523Z,99468.56
2024-02-29T00:41:41.935Z,99465.13
2024-02-29T00:44:08.932Z,99456.50
2024-02-29T00:46:38.706Z,99461.69
2024-02-29T00:49:05.751Z,99460.78
2024-02-29T00:51:33.070Z,99455.66
2024-02-29T00:54:00.065Z,99457.38
2024-02-29T00:56:26.805Z,99452.19
2024-02-29T00:58:53.428Z,99447.88
2024-02-29T01:01:20.219Z,99447.84
2024-02-29T01:03:46.911Z,99441.81
2024-02-29T01:06:13.658Z,99444.44
2024-02-29T01:08:40.314Z,99438.34
2024-02-29T01:11:07.156Z,99430.59
2024-02-29T01:13:33.897Z,99438.31
2024-02-29T01:16:00.617Z,99435.75
2024-02-29T01:18:27.312Z,99434.00
2024-02-29T01:20:53.995Z,99434.81
2024-02-29T01:23:20.678Z,99426.22
2024-02-29T01:25:47.492Z,99427.97
2024-02-29T01:28:14.322Z,99415.84
2024-02-29T01:30:41.417Z,99411.56
2024-02-29T01:33:08.161Z,99412.41
2024-02-29T01:35:34.904Z,99403.78
2024-02-29T01:38:01.566Z,99410.63
2024-02-29T01:40:28.370Z,99403.78
2024-02-29T01:42:55.086Z,99398.59
2024-02-29T01:45:21.874Z,99399.44
2024-02-29T01:47:49.486Z,99397.69
2024-02-29T01:50:17.068Z,99385.66
2024-02-29T01:52:45.304Z,99383.06
2024-02-29T01:55:12.965Z,99383.94
2024-02-29T01:57:40.781Z,99379.69
2024-02-29T02:00:10.086Z,99380.50
2024-02-29T02:02:39.221Z,99376.19
2024-02-29T02:05:09.477Z,99380.53
2024-02-29T02:07:37.217Z,99376.16
2024-02-29T02:10:06.909Z,99380.47
2024-02-29T02:12:33.913Z,99372.69
2024-02-29T02:15:03.470Z,99373.56
2024-02-29T02:17:31.437Z,99368.38
2024-02-29T02:19:59.524Z,99367.38
2024-02-29T02:22:28.070Z,99370.06
2024-02-29T02:24:54.859Z,99360.56
2024-02-29T02:27:21.927Z,99352.00
2024-02-29T02:29:48.645Z,99347.66
2024-02-29T02:32:15.337Z,99346.81
2024-02-29T02:34:41.975Z,99350.28
2024-02-29T02:37:08.775Z,99342.50
2024-02-29T02:39:35.474Z,99342.53
2024-02-29T02:42:02.519Z,99336.50
2024-02-29T02:44:29.200Z,99340.81
2024-02-29T02:46:55.879Z,99332.09
2024-02-29T02:49:22.575Z,99328.50
2024-02-29T02:51:49.273Z,99321.75
2024-02-29T02:54:15.957Z,99316.53
2024-02-29T02:56:42.593Z,99326.91
2024-02-29T02:59:09.266Z,99320.06
2024-02-29T03:01:36.007Z,99320.06
2024-02-29T03:04:02.762Z,99316.59
2024-02-29T03:06:29.544Z,99314.03
2024-02-29T03:08:56.362Z,99310.56
2024-02-29T03:11:23.128Z,99310.56
2024-02-29T03:13:49.774Z,99309.66
2024-02-29T03:16:23.937Z,99303.59
2024-02-29T03:18:50.824Z,99304.47
2024-02-29T03:21:17.692Z,99303.66
2024-02-29T03:23:44.506Z,99304.34
2024-02-29T03:26:11.444Z,99301.84
2024-02-29T03:28:38.218Z,99300.09
2024-02-29T03:31:04.950Z,99304.41
2024-02-29T03:33:31.899Z,99300.97
2024-02-29T03:35:58.698Z,99304.41
2024-02-29T03:38:25.413Z,99299.31
2024-02-29T03:40:53.118Z,99302.72
2024-02-29T03:43:20.067Z,99298.34
2024-02-29T03:45:46.886Z,99308.69
2024-02-29T03:48:13.627Z,99301.78
2024-02-29T03:50:40.352Z,99303.53
2024-02-29T03:53:07.072Z,99303.50
2024-02-29T03:55:33.715Z,99303.53
2024-02-29T03:58:00.538Z,99297.53
2024-02-29T04:00:27.241Z,99294.94
2024-02-29T04:02:53.924Z,99292.34
2024-02-29T04:05:25.151Z,99291.50
2024-02-29T04:08:01.365Z,99281.19
2024-02-29T04:10:31.414Z,99279.47
2024-02-29T04:12:59.605Z,99273.38
2024-02-29T04:15:26.319Z,99274.16
2024-02-29T04:17:53.018Z,99265.59
2024-02-29T04:20:19.884Z,99266.25
2024-02-29T04:22:46.503Z,99261.94
2024-02-29T04:25:13.892Z,99255.13
2024-02-29T04:27:40.662Z,99252.63
2024-02-29T04:30:09.554Z,99246.59
2024-02-29T04:32:38.904Z,99243.16
2024-02-29T04:35:06.954Z,99243.13
2024-02-29T04:37:33.723Z,99237.13
2024-02-29T04:40:00.434Z,99239.72
2024-02-29T04:42:27.075Z,99243.13
2024-02-29T04:44:53.686Z,99243.13
2024-02-29T04:47:20.395Z,99237.94
2024-02-29T04:49:47.022Z,99242.22
2024-02-29T04:52:13.734Z,99244.88
2024-02-29T04:54:40.467Z,99239.69
2024-02-29T04:57:07.521Z,99246.59
2024-02-29T04:59:34.177Z,99246.53
2024-02-29T05:02:02.638Z,99243.13
2024-02-29T05:04:29.672Z,99237.13
2024-02-29T05:06:57.365Z,99237.13
2024-02-29T05:09:27.517Z,99239.72
2024-02-29T05:11:55.074Z,99236.28
2024-02-29T05:14:21.745Z,99230.16
2024-02-29T05:16:48.689Z,99228.47
2024-02-29T05:19:15.593Z,99233.66
2024-02-29T05:21:44.792Z,99229.34
2024-02-29T05:24:11.537Z,99234.53
2024-02-29T05:26:38.382Z,99223.38
2024-02-29T05:29:05.083Z,99225.13
2024-02-29T05:31:32.269Z,99222.53
2024-02-29T05:33:59.026Z,99220.78
2024-02-29T05:36:25.730Z,99219.06
2024-02-29T05:38:52.444Z,99218.16
2024-02-29T05:41:19.718Z,99217.28
2024-02-29T05:43:47.399Z,99217.25
2024-02-29T05:46:14.437Z,99212.06
2024-02-29T05:48:41.347Z,99212.09
2024-02-29T05:51:12.630Z,99198.25
2024-02-29T05:53:39.698Z,99201.75
2024-02-29T05:56:06.335Z,99199.22
2024-02-29T05:58:33.101Z,99204.38
2024-02-29T06:01:02.169Z,99200.09
2024-02-29T06:03:41.214Z,99194.06
2024-02-29T06:06:08.385Z,99194.84
2024-02-29T06:08:35.075Z,99196.63
2024-02-29T06:11:04.444Z,99192.31
2024-02-29T06:13:33.063Z,99194.06
2024-02-29T06:16:51.960Z,99197.47
2024-02-29T06:19:40.001Z,99198.25
2024-02-29T06:22:36.397Z,99192.34
2024-02-29T06:25:12.843Z,99190.66
2024-02-29T06:27:43.380Z,99188.13
2024-02-29T06:30:59.899Z,99191.59
2024-02-29T06:33:28.071Z,99189.00
2024-02-29T06:35:54.975Z,99189.84
2024-02-29T06:38:27.857Z,99190.75
2024-02-29T06:41:45.284Z,99196.75
2024-02-29T06:44:20.180Z,99190.78
2024-02-29T06:46:48.917Z,99189.91
2024-02-29T06:49:19.446Z,99189.97
2024-02-29T06:52:33.803Z,99190.00
2024-02-29T06:55:12.167Z,99189.19
2024-02-29T06:57:55.197Z,99187.44
2024-02-29T07:00:43.776Z,99188.31
2024-02-29T07:03:24.017Z,99186.63
2024-02-29T07:05:56.356Z,99186.59
2024-02-29T07:08:31.537Z,99191.78
2024-02-29T07:11:06.712Z,99181.47
2024-02-29T07:13:57.933Z,99178.91
2024-02-29T07:16:41.482Z,99175.47
2024-02-29T07:19:14.147Z,99176.34
2024-02-29T07:21:42.791Z,99172.03
2024-02-29T07:24:10.034Z,99166.00
2024-02-29T07:26:45.128Z,99162.56
2024-02-29T07:29:12.908Z,99166.88
2024-02-29T07:31:43.439Z,99160.84
2024-02-29T07:34:12.126Z,99160.81
2024-02-29T07:36:45.305Z,99158.22
2024-02-29T07:39:13.513Z,99156.44
2024-02-29T07:41:42.141Z,99144.34
2024-02-29T07:44:16.218Z,99148.63
2024-02-29T07:46:43.934Z,99144.31
2024-02-29T07:49:12.190Z,99144.28
2024-02-29T07:52:03.972Z,99147.69
2024-02-29T07:54:43.308Z,99144.22
2024-02-29T07:57:22.541Z,99145.00
2024-02-29T07:59:52.963Z,99148.31
2024-02-29T08:02:23.773Z,99142.19
2024-02-29T08:04:51.598Z,99136.00
2024-02-29T08:07:18.696Z,99141.06
2024-02-29T08:09:48.557Z,99129.78
2024-02-29T08:12:15.347Z,99124.47
2024-02-29T08:14:42.696Z,99126.91
2024-02-29T08:17:09.341Z,99121.53
2024-02-29T08:19:35.985Z,99116.47
2024-02-29T08:22:02.778Z,99118.88
2024-02-29T08:24:29.398Z,99116.81
2024-02-29T08:26:56.049Z,99104.66
2024-02-29T08:29:22.664Z,99115.81
2024-02-29T08:31:49.433Z,99107.28
2024-02-29T08:34:16.068Z,99105.19
2024-02-29T08:36:42.909Z,99103.31
2024-02-29T08:39:09.589Z,99106.53
2024-02-29T08:41:36.227Z,99105.19
2024-02-29T08:44:04.480Z,99103.53
2024-02-29T08:46:31.226Z,99097.88
2024-02-29T08:49:00.335Z,99092.78
2024-02-29T08:51:28.443Z,99098.66
2024-02-29T08:53:55.107Z,99099.28
2024-02-29T08:56:21.801Z,99098.00
2024-02-29T08:58:48.479Z,99095.22
2024-02-29T09:01:15.249Z,99088.00
2024-02-29T09:03:41.894Z,99091.09
2024-02-29T09:06:08.523Z,99083.25
2024-02-29T09:08:35.155Z,99072.59
2024-02-29T09:11:01.873Z,99074.31
2024-02-29T09:13:34.797Z,99069.66
2024-02-29T09:16:02.711Z,99067.72
2024-02-29T09:18:30.938Z,99073.47
2024-02-29T09:20:58.216Z,99062.88
2024-02-29T09:23:25.104Z,99062.28
2024-02-29T09:25:51.773Z,99049.25
2024-02-29T09:28:18.636Z,99051.09
2024-02-29T09:30:45.407Z,99049.94
2024-02-29T09:33:13.122Z,99051.34
2024-02-29T09:35:39.791Z,99046.66
2024-02-29T09:38:06.446Z,99040.41
2024-02-29T09:40:42.003Z,99040.44
2024-02-29T09:43:16.547Z,99039.66
2024-02-29T09:45:44.265Z,99035.16
2024-02-29T09:48:12.424Z,99034.94
2024-02-29T09:50:39.504Z,99036.16
2024-02-29T09:53:06.394Z,99028.03
2024-02-29T09:55:33.510Z,99020.25
2024-02-29T09:58:01.479Z,99014.16
2024-02-29T10:00:28.251Z,99010.63
2024-02-29T10:02:56.928Z,99017.25
2024-02-29T10:05:23.797Z,99019.78
2024-02-29T10:07:50.485Z,99010.28
2024-02-29T10:10:18.212Z,99000.97
2024-02-29T10:12:53.337Z,99001.25
2024-02-29T10:15:20.565Z,98998.47
2024-02-29T10:17:47.242Z,98998.81
2024-02-29T10:20:16.649Z,98996.38
2024-02-29T10:22:45.304Z,98992.31
2024-02-29T10:25:14.288Z,98988.63
2024-02-29T10:27:42.056Z,98985.31
2024-02-29T10:30:14.592Z,98982.53
2024-02-29T10:32:45.357Z,98976.31
2024-02-29T10:35:28.355Z,98974.44
2024-02-29T10:37:56.215Z,98963.94
2024-02-29T10:40:24.977Z,98970.34
2024-02-29T10:42:53.176Z,98962.53
2024-02-29T10:45:20.594Z,98956.59
2024-02-29T10:47:58.456Z,98953.91
2024-02-29T10:50:29.951Z,98953.69
2024-02-29T10:53:20.424Z,98953.44
2024-02-29T10:55:57.900Z,98956.16
2024-02-29T10:58:50.916Z,98945.50
2024-02-29T11:01:18.616Z,98938.72
2024-02-29T11:03:47.003Z,98936.97
2024-02-29T11:06:14.029Z,98924.00
2024-02-29T11:08:41.541Z,98928.44
2024-02-29T11:11:16.173Z,98927.53
2024-02-29T11:13:42.921Z,98921.31
2024-02-29T11:16:12.148Z,98910.44
2024-02-29T11:18:39.274Z,98903.91
2024-02-29T11:21:06.916Z,98896.28
2024-02-29T11:23:43.173Z,98893.09
2024-02-29T11:26:11.866Z,98888.88
2024-02-29T11:28:40.679Z,98875.34
2024-02-29T11:31:18.738Z,98873.59
2024-02-29T11:33:48.910Z,98856.69
2024-02-29T11:36:15.686Z,98853.91
2024-02-29T11:38:42.429Z,98854.19
2024-02-29T11:41:20.058Z,98854.47
2024-02-29T11:43:47.893Z,98850.25
2024-02-29T11:46:15.331Z,98848.91
2024-02-29T11:48:42.701Z,98836.44
2024-02-29T11:51:09.845Z,98831.38
2024-02-29T11:53:37.876Z,98831.56
2024-02-29T11:56:14.101Z,98825.34
2024-02-29T11:58:43.009Z,98809.91
2024-02-29T12:01:13.314Z,98806.38
2024-02-29T12:03:40.229Z,98800.47
2024-02-29T12:06:07.446Z,98800.59
2024-02-29T12:08:34.226Z,98794.44
2024-02-29T12:11:01.396Z,98794.50
2024-02-29T12:13:29.644Z,98795.91
2024-02-29T12:15:58.370Z,98785.00
2024-02-29T12:18:25.056Z,98784.41
2024-02-29T12:20:52.502Z,98776.28
2024-02-29T12:23:20.694Z,98771.69
2024-02-29T12:25:47.635Z,98771.41
2024-02-29T12:28:14.734Z,98769.94
2024-02-29T12:30:41.991Z,98762.84
2024-02-29T12:33:11.120Z,98757.81
2024-02-29T12:35:38.004Z,98753.34
2024-02-29T12:38:05.372Z,98748.78
2024-02-29T12:40:34.317Z,98750.09
2024-02-29T12:43:01.226Z,98730.63
2024-02-29T12:45:28.402Z,98730.84
2024-02-29T12:47:55.746Z,98726.25
2024-02-29T12:50:23.044Z,98719.16
2024-02-29T12:52:55.263Z,98714.53
2024-02-29T12:55:23.149Z,98711.19
2024-02-29T12:57:50.812Z,98708.38
2024-02-29T13:00:24.354Z,98701.63
2024-02-29T13:02:51.829Z,98698.25
2024-02-29T13:05:19.393Z,98693.50
2024-02-29T13:07:46.740Z,98688.97
2024-02-29T13:10:13.976Z,98683.78
2024-02-29T13:12:51.442Z,98671.56
2024-02-29T13:15:21.188Z,98672.88
2024-02-29T13:17:47.856Z,98670.69
2024-02-29T13:20:14.547Z,98659.97
2024-02-29T13:22:41.464Z,98659.75
2024-02-29T13:25:08.871Z,98654.06
2024-02-29T13:27:35.947Z,98649.56
2024-02-29T13:30:02.698Z,98651.22
2024-02-29T13:32:29.296Z,98645.03
2024-02-29T13:34:56.071Z,98642.16
2024-02-29T13:37:22.849Z,98639.56
2024-02-29T13:39:49.504Z,98626.84
2024-02-29T13:42:16.162Z,98621.53
2024-02-29T13:44:44.336Z,98617.47
2024-02-29T13:47:11.145Z,98609.63
2024-02-29T13:49:38.146Z,98613.19
2024-02-29T13:52:05.000Z,98597.38
2024-02-29T13:54:32.103Z,98601.97
2024-02-29T13:56:59.113Z,98598.00
2024-02-29T13:59:25.780Z,98591.84
2024-02-29T14:01:52.679Z,98596.31
2024-02-29T14:04:19.435Z,98582.56
2024-02-29T14:06:46.419Z,98575.06
2024-02-29T14:09:14.802Z,98576.69
2024-02-29T14:11:41.486Z,98571.88
2024-02-29T14:14:08.368Z,98572.09
2024-02-29T14:16:35.222Z,98560.88
2024-02-29T14:19:01.958Z,98555.63
2024-02-29T14:21:28.796Z,98555.97
2024-02-29T14:23:55.387Z,98559.44
2024-02-29T14:26:23.301Z,98552.34
2024-02-29T14:28:51.771Z,98545.41
2024-02-29T14:31:18.954Z,98544.72
2024-02-29T14:33:45.828Z,98541.94
2024-02-29T14:36:13.212Z,98531.97
2024-02-29T14:38:40.030Z,98530.34
2024-02-29T14:41:06.762Z,98521.13
2024-02-29T14:43:33.472Z,98522.59
2024-02-29T14:46:00.211Z,98514.38
2024-02-29T14:48:26.959Z,98508.50
2024-02-29T14:50:53.636Z,98507.59
2024-02-29T14:53:20.493Z,98503.13
2024-02-29T14:55:48.357Z,98509.16
2024-02-29T14:58:15.206Z,98506.03
2024-02-29T15:00:42.886Z,98492.09
2024-02-29T15:03:09.691Z,98493.63
2024-02-29T15:05:37.232Z,98489.31
2024-02-29T15:08:06.624Z,98492.44
2024-02-29T15:10:33.521Z,98486.03
2024-02-29T15:13:00.985Z,98486.19
2024-02-29T15:15:29.441Z,98468.75
2024-02-29T15:17:56.429Z,98477.81
2024-02-29T15:20:23.193Z,98473.25
2024-02-29T15:22:50.003Z,98475.09
2024-02-29T15:25:17.463Z,98470.75
2024-02-29T15:27:46.810Z,98463.44
2024-02-29T15:30:13.980Z,98462.13
2024-02-29T15:32:41.003Z,98455.53
2024-02-29T15:35:08.755Z,98451.13
2024-02-29T15:37:35.936Z,98442.91
2024-02-29T15:40:03.572Z,98451.31
2024-02-29T15:42:30.320Z,98443.97
2024-02-29T15:44:56.934Z,98449.13
2024-02-29T15:47:23.714Z,98442.78
2024-02-29T15:49:50.494Z,98438.59
2024-02-29T15:52:18.663Z,98442.91
2024-02-29T15:54:45.586Z,98441.34
2024-02-29T15:57:12.578Z,98435.94
2024-02-29T15:59:40.149Z,98431.50
2024-02-29T16:02:07.505Z,98433.66
2024-02-29T16:04:34.354Z,98425.88
2024-02-29T16:07:01.089Z,98426.13
2024-02-29T16:09:27.807Z,98427.94
2024-02-29T16:11:54.554Z,98425.69
2024-02-29T16:14:24.179Z,98425.94
2024-02-29T16:16:50.844Z,98420.97
2024-02-29T16:19:17.645Z,98418.78
2024-02-29T16:21:44.711Z,98405.34
2024-02-29T16:24:11.366Z,98413.69
2024-02-29T16:26:38.196Z,98408.97
2024-02-29T16:29:04.880Z,98411.72
2024-02-29T16:31:31.551Z,98404.34
2024-02-29T16:33:58.367Z,98401.06
2024-02-29T16:36:25.036Z,98403.31
2024-02-29T16:38:51.725Z,98392.22
2024-02-29T16:41:18.373Z,98395.38
2024-02-29T16:43:45.059Z,98386.69
2024-02-29T16:46:12.157Z,98389.34
2024-02-29T16:48:39.225Z,98381.94
2024-02-29T16:51:06.006Z,98384.88
2024-02-29T16:53:32.671Z,98384.25
2024-02-29T16:55:59.904Z,98381.75
2024-02-29T16:58:27.146Z,98385.31
2024-02-29T17:00:56.081Z,98382.13
2024-02-29T17:03:22.874Z,98382.66
2024-02-29T17:05:49.566Z,98381.94
2024-02-29T17:08:16.189Z,98382.16
2024-02-29T17:10:42.955Z,98383.13
2024-02-29T17:13:09.885Z,98376.47
2024-02-29T17:15:38.451Z,98375.84
2024-02-29T17:18:05.349Z,98375.94
2024-02-29T17:20:32.166Z,98377.84
2024-02-29T17:22:58.818Z,98379.84
2024-02-29T17:25:25.597Z,98376.50
2024-02-29T17:27:55.282Z,98375.88
2024-02-29T17:30:24.358Z,98379.50
2024-02-29T17:32:51.227Z,98381.56
2024-02-29T17:35:17.948Z,98379.91
2024-02-29T17:37:44.955Z,98379.91
2024-02-29T17:40:12.204Z,98376.63
2024-02-29T17:42:38.950Z,98372.56
2024-02-29T17:45:06.087Z,98365.56
2024-02-29T17:47:32.786Z,98364.06
2024-02-29T17:49:59.512Z,98357.22
2024-02-29T17:52:26.411Z,98365.13
2024-02-29T17:54:55.025Z,98357.44
2024-02-29T17:57:21.793Z,98363.63
2024-02-29T17:59:48.375Z,98350.94
2024-02-29T18:02:14.990Z,98356.13
2024-02-29T18:04:41.658Z,98356.06
2024-02-29T18:07:08.362Z,98361.44
2024-02-29T18:09:35.756Z,98353.00
2024-02-29T18:12:02.453Z,98357.31
2024-02-29T18:14:30.171Z,98361.72
2024-02-29T18:16:57.639Z,98360.94
2024-02-29T18:19:24.510Z,98357.56
2024-02-29T18:21:51.682Z,98365.34
2024-02-29T18:24:18.745Z,98364.50
2024-02-29T18:26:47.357Z,98365.53
2024-02-29T18:29:14.566Z,98365.75
2024-02-29T18:31:41.240Z,98360.69
2024-02-29T18:34:10.655Z,98354.66
2024-02-29T18:36:39.070Z,98353.00
2024-02-29T18:39:12.161Z,98345.19
2024-02-29T18:41:40.644Z,98353.19
2024-02-29T18:44:09.150Z,98351.50
2024-02-29T18:46:36.959Z,98343.84
2024-02-29T18:49:04.263Z,98342.13
2024-02-29T18:51:31.006Z,98337.94
2024-02-29T18:53:57.649Z,98339.63
2024-02-29T18:56:24.380Z,98330.16
2024-02-29T18:58:52.022Z,98331.00
2024-02-29T19:01:19.006Z,98335.34
2024-02-29T19:03:45.703Z,98327.69
2024-02-29T19:06:12.680Z,98332.91
2024-02-29T19:08:39.376Z,98327.69
2024-02-29T19:11:07.020Z,98320.78
2024-02-29T19:13:33.735Z,98319.91
2024-02-29T19:16:02.640Z,98316.56
2024-02-29T19:18:29.517Z,98318.44
2024-02-29T19:20:56.240Z,98313.19
2024-02-29T19:23:23.084Z,98316.59
2024-02-29T19:25:50.476Z,98315.88
2024-02-29T19:28:17.326Z,98313.41
2024-02-29T19:30:44.099Z,98302.78
2024-02-29T19:33:10.906Z,98301.94
2024-02-29T19:35:37.583Z,98301.94
2024-02-29T19:38:04.493Z,98305.56
2024-02-29T19:40:31.218Z,98297.03
2024-02-29T19:42:57.906Z,98299.69
2024-02-29T19:45:24.784Z,98295.47
2024-02-29T19:47:52.640Z,98295.41
2024-02-29T19:50:21.432Z,98292.06
2024-02-29T19:52:48.094Z,98280.97
2024-02-29T19:55:15.924Z,98286.84
2024-02-29T19:57:42.867Z,98282.44
2024-02-29T20:00:11.680Z,98280.84
2024-02-29T20:02:41.437Z,98284.34
2024-02-29T20:05:09.873Z,98283.44
2024-02-29T20:07:36.516Z,98274.78
2024-02-29T20:10:03.370Z,98277.28
2024-02-29T20:12:30.099Z,98268.78
2024-02-29T20:14:56.748Z,98267.03
2024-02-29T20:17:23.637Z,98263.59
2024-02-29T20:19:50.444Z,98266.13
2024-02-29T20:22:17.266Z,98260.84
2024-02-29T20:24:44.025Z,98254.88
2024-02-29T20:27:10.849Z,98254.00
2024-02-29T20:29:37.666Z,98256.63
2024-02-29T20:32:04.547Z,98241.78
2024-02-29T20:34:31.226Z,98249.56
2024-02-29T20:36:57.835Z,98247.94
2024-02-29T20:39:24.539Z,98234.09
2024-02-29T20:41:51.173Z,98233.13
2024-02-29T20:44:17.793Z,98238.31
2024-02-29T20:46:44.401Z,98232.00
2024-02-29T20:49:11.121Z,98224.13
2024-02-29T20:51:37.740Z,98224.94
2024-02-29T20:54:05.018Z,98220.63
2024-02-29T20:56:31.711Z,98223.19
2024-02-29T20:58:58.565Z,98218.25
2024-02-29T21:01:25.495Z,98219.94
2024-02-29T21:03:52.774Z,98219.19
2024-02-29T21:06:23.571Z,98210.63
2024-02-29T21:08:50.484Z,98208.84
2024-02-29T21:11:18.421Z,98209.06
2024-02-29T21:13:46.128Z,98211.66
2024-02-29T21:16:13.174Z,98207.16
2024-02-29T21:18:39.942Z,98208.03
2024-02-29T21:21:06.750Z,98208.97
2024-02-29T21:23:34.374Z,98213.38
2024-02-29T21:26:01.897Z,98211.59
2024-02-29T21:28:28.745Z,98210.88
2024-02-29T21:30:56.248Z,98209.28
2024-02-29T21:33:23.155Z,98206.66
2024-02-29T21:35:51.405Z,98213.50
2024-02-29T21:38:18.275Z,98207.56
2024-02-29T21:40:45.090Z,98209.28
2024-02-29T21:43:12.152Z,98204.25
2024-02-29T21:45:39.084Z,98196.44
2024-02-29T21:48:06.567Z,98200.69
2024-02-29T21:50:34.955Z,98195.53
2024-02-29T21:53:01.592Z,98193.81
2024-02-29T21:55:28.258Z,98196.47
2024-02-29T21:57:55.430Z,98202.63
2024-02-29T22:00:22.200Z,98191.41
2024-02-29T22:02:48.993Z,98194.75
2024-02-29T22:05:15.634Z,98185.28
2024-02-29T22:07:42.255Z,98187.91
2024-02-29T22:10:09.754Z,98184.63
2024-02-29T22:12:37.365Z,98185.50
2024-02-29T22:15:04.316Z,98185.59
2024-02-29T22:17:31.104Z,98193.56
2024-02-29T22:19:58.220Z,98185.75
2024-02-29T22:22:25.057Z,98185.75
2024-02-29T22:24:51.935Z,98181.47
2024-02-29T22:27:18.592Z,98175.53
2024-02-29T22:29:45.208Z,98178.13
2024-02-29T22:32:11.785Z,98172.81
2024-02-29T22:34:38.467Z,98172.00
2024-02-29T22:37:05.612Z,98163.38
2024-02-29T22:39:32.649Z,98163.31
2024-02-29T22:42:02.268Z,98164.19
2024-02-29T22:44:30.079Z,98158.28
2024-02-29T22:46:56.887Z,98157.25
2024-02-29T22:49:24.574Z,98156.13
2024-02-29T22:51:51.666Z,98157.03
2024-02-29T22:54:18.969Z,98157.78
2024-02-29T22:56:45.720Z,98162.19
2024-02-29T22:59:12.376Z,98157.88
2024-02-29T23:01:45.675Z,98158.84
2024-02-29T23:04:13.425Z,98162.53
2024-02-29T23:06:40.186Z,98163.47
2024-02-29T23:09:06.989Z,98170.44
2024-02-29T23:11:34.510Z,98166.09
2024-02-29T23:14:01.229Z,98161.88
2024-02-29T23:16:28.244Z,98167.97
2024-02-29T23:18:55.011Z,98158.44
2024-02-29T23:21:21.966Z,98158.34
2024-02-29T23:23:48.599Z,98154.84
2024-02-29T23:26:15.223Z,98149.22
2024-02-29T23:28:41.844Z,98153.41
2024-02-29T23:31:08.529Z,98145.69
2024-02-29T23:33:35.813Z,98143.88
2024-02-29T23:36:02.661Z,98143.88
2024-02-29T23:38:29.298Z,98139.50
2024-02-29T23:40:55.912Z,98138.56
2024-02-29T23:43:22.540Z,98143.78
2024-02-29T23:45:49.421Z,98149.00
2024-02-29T23:48:17.079Z,98145.59
2024-02-29T23:50:45.444Z,98143.16
2024-02-29T23:53:12.270Z,98142.44
2024-02-29T23:55:38.949Z,98141.50
2024-02-29T23:58:05.681Z,98142.53
